Time;durP1;ratioP1;P1;durP2;ratioP2;P2;SDS_P1;SDS_P2;PMS_P1;PMS_P2;Temp;Humidity;BMP_temperature;BMP_pressure;BME280_temperature;BME280_humidity;BME280_pressure;Samples;Min_cycle;Max_cycle;Signal;HPM_P1;HPM_P2
2022/09/03 00:02:14;;;;;;;2.35;1.30;;;;;;;18.96;40.49;99930.38;5052974;28;20120;-64
2022/09/03 00:04:51;;;;;;;2.15;1.30;;;;;;;18.89;40.44;99935.13;5054135;28;20084;-65
2022/09/03 00:07:28;;;;;;;3.65;1.50;;;;;;;18.74;41.13;99929.25;5053216;28;20474;-65
2022/09/03 00:10:03;;;;;;;3.15;1.60;;;;;;;18.63;41.54;99929.13;5054565;28;20409;-64
2022/09/03 00:12:38;;;;;;;2.42;1.50;;;;;;;18.54;41.58;99933.41;5058484;28;20413;-64
2022/09/03 00:15:13;;;;;;;2.83;1.50;;;;;;;18.42;42.16;99935.28;5063694;28;20470;-64
2022/09/03 00:17:49;;;;;;;2.15;1.40;;;;;;;18.31;42.60;99925.88;5053512;28;20049;-64
2022/09/03 00:20:27;;;;;;;2.83;1.60;;;;;;;18.17;42.68;99929.28;5051194;28;20064;-66
2022/09/03 00:22:57;;;;;;;2.38;1.30;;;;;;;18.07;43.04;99937.56;5052978;28;20409;-64
2022/09/03 00:25:30;;;;;;;2.83;1.58;;;;;;;17.97;43.01;99941.84;5056282;28;20163;-63
2022/09/03 00:28:02;;;;;;;3.05;1.30;;;;;;;17.87;43.43;99931.19;5073717;28;20045;-64
2022/09/03 00:30:36;;;;;;;2.80;1.60;;;;;;;17.80;43.61;99932.66;5058878;28;20490;-64
2022/09/03 00:33:12;;;;;;;2.45;1.48;;;;;;;17.73;43.89;99931.75;5053721;28;20053;-65
2022/09/03 00:35:49;;;;;;;2.80;1.40;;;;;;;17.63;44.26;99924.75;5051518;28;20045;-64
2022/09/03 00:38:17;;;;;;;4.00;1.40;;;;;;;17.57;44.65;99929.88;5053215;28;20048;-65
2022/09/03 00:41:15;;;;;;;3.58;1.48;;;;;;;17.50;44.83;99920.50;5051684;28;20057;-64
2022/09/03 00:43:59;;;;;;;3.25;1.48;;;;;;;17.40;45.00;99928.34;5051956;28;20493;-64
2022/09/03 00:46:40;;;;;;;2.40;1.42;;;;;;;17.35;45.13;99930.69;5051964;28;20060;-64
2022/09/03 00:49:32;;;;;;;2.80;1.30;;;;;;;17.25;45.34;99926.47;5053562;28;20421;-64
2022/09/03 00:52:11;;;;;;;2.22;1.30;;;;;;;17.24;45.31;99924.84;5052968;28;20532;-64
2022/09/03 00:54:48;;;;;;;2.08;1.45;;;;;;;17.17;45.73;99917.06;5063489;28;20048;-66
2022/09/03 00:57:44;;;;;;;2.20;1.40;;;;;;;17.10;46.04;99931.00;5067528;28;20049;-64
2022/09/03 01:00:20;;;;;;;4.07;1.60;;;;;;;17.01;46.05;99931.25;5052980;28;20056;-64
2022/09/03 01:03:07;;;;;;;2.95;1.20;;;;;;;16.97;46.44;99930.34;5052887;28;20429;-65
2022/09/03 01:06:04;;;;;;;3.28;1.40;;;;;;;16.89;46.49;99928.59;5052720;28;20059;-64
2022/09/03 01:08:54;;;;;;;5.18;1.23;;;;;;;16.84;46.37;99923.28;5051774;28;20060;-64
2022/09/03 01:11:32;;;;;;;2.10;1.40;;;;;;;16.76;47.36;99932.72;5053341;28;20056;-65
2022/09/03 01:14:10;;;;;;;2.55;1.40;;;;;;;16.69;47.31;99926.91;5052729;28;20052;-64
2022/09/03 01:16:46;;;;;;;4.20;1.33;;;;;;;16.63;47.50;99940.44;5064164;28;20049;-64
2022/09/03 01:19:55;;;;;;;5.13;1.50;;;;;;;16.56;47.47;99938.28;5057139;28;20053;-64
2022/09/03 01:22:50;;;;;;;4.07;1.73;;;;;;;16.53;47.33;99943.88;5053085;28;20132;-64
2022/09/03 01:25:32;;;;;;;2.55;1.17;;;;;;;16.45;47.38;99937.25;5021559;28;20051;-63
2022/09/03 01:28:26;;;;;;;3.08;1.35;;;;;;;16.28;47.83;99943.28;5035308;28;20612;-64
2022/09/03 01:31:00;;;;;;;2.75;1.38;;;;;;;16.26;47.62;99929.59;5052345;28;20052;-64
2022/09/03 01:33:35;;;;;;;3.58;1.30;;;;;;;16.24;47.92;99938.38;5052714;28;20409;-64
2022/09/03 01:36:16;;;;;;;2.70;1.40;;;;;;;16.17;48.17;99940.25;5052626;28;20394;-64
2022/09/03 01:45:12;;;;;;;2.10;1.25;;;;;;;16.10;48.13;99932.44;5062327;28;20064;-66
2022/09/03 01:47:53;;;;;;;1.63;1.20;;;;;;;16.07;48.32;99938.78;5068949;28;20115;-64
2022/09/03 01:53:38;;;;;;;2.85;1.40;;;;;;;16.00;48.45;99921.75;5048217;28;20163;-65
2022/09/03 01:56:32;;;;;;;3.20;1.75;;;;;;;16.02;48.51;99927.81;5032546;28;20057;-66
2022/09/03 01:59:12;;;;;;;4.95;1.38;;;;;;;15.99;48.66;99923.75;5051663;28;20048;-64
2022/09/03 02:01:53;;;;;;;2.28;1.38;;;;;;;15.98;48.87;99921.31;5052742;28;20516;-64
2022/09/03 02:04:27;;;;;;;3.38;1.40;;;;;;;15.98;49.01;99924.94;5052433;28;20045;-64
2022/09/03 02:06:59;;;;;;;2.30;1.25;;;;;;;15.98;49.03;99926.91;5055039;28;20402;-64
2022/09/03 02:09:27;;;;;;;2.13;1.40;;;;;;;15.96;49.03;99924.50;5056185;28;20048;-64
2022/09/03 02:12:12;;;;;;;1.80;1.10;;;;;;;15.94;48.99;99926.84;5060182;28;20064;-66
2022/09/03 02:14:43;;;;;;;2.28;1.40;;;;;;;15.90;49.24;99925.94;5063597;28;20057;-64
2022/09/03 02:17:25;;;;;;;1.63;1.30;;;;;;;15.89;49.40;99931.91;5056677;28;20494;-64
2022/09/03 02:19:59;;;;;;;3.40;1.52;;;;;;;15.87;49.46;99928.66;5057060;28;20493;-64
2022/09/03 02:22:31;;;;;;;2.13;1.48;;;;;;;15.82;49.60;99930.56;5056770;28;20060;-64
2022/09/03 02:25:00;;;;;;;2.28;1.20;;;;;;;15.80;49.54;99924.50;5054976;28;20064;-64
2022/09/03 02:27:30;;;;;;;1.98;1.30;;;;;;;15.76;49.99;99923.59;5055197;28;20516;-64
2022/09/03 02:30:06;;;;;;;2.50;1.48;;;;;;;15.75;50.14;99926.78;5060375;28;20048;-64
2022/09/03 02:32:44;;;;;;;3.15;1.75;;;;;;;15.72;49.96;99928.31;5056142;28;20060;-64
2022/09/03 02:35:15;;;;;;;1.83;1.40;;;;;;;15.68;50.08;99927.38;5056455;28;20053;-64
2022/09/03 02:37:43;;;;;;;3.42;1.40;;;;;;;15.66;49.91;99918.50;5056317;28;20063;-59
2022/09/03 02:40:11;;;;;;;1.88;1.20;;;;;;;15.66;50.00;99924.09;5055856;28;20057;-59
2022/09/03 02:42:49;;;;;;;1.98;1.27;;;;;;;15.65;50.35;99922.50;5060406;28;20048;-59
2022/09/03 02:45:27;;;;;;;2.30;1.40;;;;;;;15.62;50.38;99920.38;5074984;28;20063;-59
2022/09/03 02:47:59;;;;;;;2.25;1.40;;;;;;;15.63;50.38;99924.84;5055836;28;20056;-59
2022/09/03 02:50:54;;;;;;;;;;;;;;;;;;;;;
2022/09/03 02:53:27;;;;;;;4.18;1.25;;;;;;;15.53;49.96;99914.16;5055894;28;20127;-59
2022/09/03 02:56:04;;;;;;;1.80;1.27;;;;;;;15.57;50.11;99915.06;5055534;28;20052;-59
2022/09/03 02:58:32;;;;;;;2.17;1.50;;;;;;;15.54;50.43;99922.22;5072600;28;20068;-59
2022/09/03 03:01:07;;;;;;;1.95;1.27;;;;;;;15.52;50.13;99921.75;5072737;28;20060;-59
2022/09/03 03:03:39;;;;;;;1.70;1.35;;;;;;;15.54;50.38;99927.00;5054962;28;20053;-59
2022/09/03 03:06:09;;;;;;;2.33;1.40;;;;;;;15.52;50.31;99918.97;5055299;28;20064;-59
2022/09/03 03:08:59;;;;;;;2.47;1.50;;;;;;;15.48;50.48;99914.44;5054720;28;20049;-59
2022/09/03 03:11:35;;;;;;;2.70;1.33;;;;;;;15.46;50.64;99916.78;5054726;28;20056;-58
2022/09/03 03:14:04;;;;;;;2.17;1.38;;;;;;;15.43;50.51;99912.69;5055245;28;20057;-59
2022/09/03 03:16:41;;;;;;;2.13;1.35;;;;;;;15.39;50.76;99914.59;5055002;28;20052;-59
2022/09/03 03:19:11;;;;;;;2.40;1.45;;;;;;;15.36;50.96;99910.50;5055030;28;20057;-64
2022/09/03 03:21:41;;;;;;;2.40;1.33;;;;;;;15.32;51.04;99915.22;5054865;28;20498;-59
2022/09/03 03:24:12;;;;;;;2.85;1.40;;;;;;;15.30;51.04;99911.16;5053401;28;20053;-59
2022/09/03 03:26:49;;;;;;;2.83;1.70;;;;;;;15.28;50.97;99914.31;5054811;28;20057;-59
2022/09/03 03:29:22;;;;;;;2.25;1.40;;;;;;;15.21;51.27;99914.13;5071843;28;20226;-59
2022/09/03 03:31:59;;;;;;;3.75;1.45;;;;;;;15.18;51.38;99912.88;5060452;28;20056;-59
2022/09/03 03:34:27;;;;;;;2.47;1.38;;;;;;;15.19;50.98;99900.44;5054658;28;20053;-58
2022/09/03 03:36:55;;;;;;;3.65;1.63;;;;;;;15.16;51.31;99908.75;5054150;28;20053;-59
2022/09/03 03:39:22;;;;;;;1.80;1.40;;;;;;;15.12;51.33;99905.88;5054225;28;20513;-60
2022/09/03 03:41:51;;;;;;;1.90;1.20;;;;;;;15.10;51.47;99908.22;5054158;28;20053;-59
2022/09/03 03:44:19;;;;;;;2.03;1.27;;;;;;;15.08;51.46;99909.75;5054664;28;20516;-59
2022/09/03 03:46:46;;;;;;;3.28;1.20;;;;;;;15.03;51.61;99902.41;5054234;28;20828;-59
2022/09/03 03:49:13;;;;;;;2.17;1.40;;;;;;;15.02;51.77;99900.78;5054222;28;20417;-59
2022/09/03 03:51:42;;;;;;;1.80;1.30;;;;;;;14.98;51.67;99903.47;5054135;28;20056;-59
2022/09/03 03:54:09;;;;;;;2.53;1.60;;;;;;;14.96;51.93;99900.22;5054094;28;20060;-59
2022/09/03 03:56:37;;;;;;;3.05;1.45;;;;;;;14.92;51.95;99901.31;5057918;28;20060;-59
2022/09/03 03:59:04;;;;;;;1.92;1.40;;;;;;;14.92;51.98;99902.09;5061548;28;20386;-58
2022/09/03 04:01:32;;;;;;;3.35;1.30;;;;;;;14.91;52.07;99892.09;5053973;28;20049;-58
2022/09/03 04:04:00;;;;;;;2.50;1.50;;;;;;;14.87;51.76;99893.97;5053520;28;20053;-59
2022/09/03 04:06:28;;;;;;;2.40;1.38;;;;;;;14.84;52.17;99883.44;5051882;28;20375;-59
2022/09/03 04:08:56;;;;;;;2.65;1.40;;;;;;;14.81;52.39;99879.38;5053575;28;20414;-59
2022/09/03 04:11:25;;;;;;;2.93;1.40;;;;;;;14.81;52.51;99884.19;5053978;28;20060;-59
2022/09/03 04:13:53;;;;;;;3.05;1.50;;;;;;;14.78;52.12;99890.50;5058172;28;20049;-59
2022/09/03 04:16:22;;;;;;;3.53;1.20;;;;;;;14.69;52.33;99881.44;5054150;28;20053;-59
2022/09/03 04:18:50;;;;;;;4.10;1.27;;;;;;;14.69;52.68;99875.81;5053322;28;20068;-59
2022/09/03 04:21:20;;;;;;;2.55;1.27;;;;;;;14.70;52.58;99883.03;5053988;28;20049;-59
2022/09/03 04:23:49;;;;;;;1.83;1.30;;;;;;;14.68;52.83;99874.19;5052815;28;20053;-59
2022/09/03 04:26:19;;;;;;;2.97;1.40;;;;;;;14.67;52.67;99875.34;5053120;28;20056;-58
2022/09/03 04:28:47;;;;;;;4.97;1.27;;;;;;;14.64;52.82;99881.69;5051870;28;20163;-59
2022/09/03 04:31:16;;;;;;;3.10;1.40;;;;;;;14.68;52.82;99875.00;5053486;28;20052;-59
2022/09/03 04:33:43;;;;;;;2.42;1.40;;;;;;;14.61;53.22;99881.22;5053617;28;20052;-58
2022/09/03 04:36:13;;;;;;;4.25;1.60;;;;;;;14.63;53.10;99872.44;5053499;28;20481;-58
2022/09/03 04:38:41;;;;;;;4.55;1.70;;;;;;;14.58;52.78;99872.72;5053150;28;20052;-59
2022/09/03 04:41:11;;;;;;;2.03;1.20;;;;;;;14.58;52.99;99869.91;5052842;28;20049;-58
2022/09/03 04:43:41;;;;;;;1.95;1.17;;;;;;;14.58;53.27;99875.50;5073201;28;20397;-59
2022/09/03 04:46:08;;;;;;;3.63;1.23;;;;;;;14.58;53.11;99862.31;5056314;28;20490;-59
2022/09/03 04:48:37;;;;;;;3.97;1.65;;;;;;;14.55;53.55;99870.56;5052876;28;20120;-60
2022/09/03 04:51:07;;;;;;;5.82;1.48;;;;;;;14.56;53.06;99861.84;5052667;28;20060;-59
2022/09/03 04:53:34;;;;;;;;;;;;;;;14.56;53.22;99867.47;5053772;28;20063;-59
2022/09/03 04:56:01;;;;;;;3.90;1.58;;;;;;;14.59;53.32;99872.38;5051969;28;19932;-59
2022/09/03 04:58:29;;;;;;;3.03;1.23;;;;;;;14.60;53.41;99868.38;5053092;28;20048;-59
2022/09/03 05:00:58;;;;;;;3.70;1.40;;;;;;;14.61;53.46;99869.19;5051191;28;20052;-60
2022/09/03 05:03:25;;;;;;;5.82;1.45;;;;;;;14.61;53.80;99880.41;5070727;28;20052;-59
2022/09/03 05:05:53;;;;;;;4.15;1.50;;;;;;;14.65;53.35;99878.50;5063705;28;20048;-59
2022/09/03 05:08:21;;;;;;;2.58;1.30;;;;;;;14.59;53.74;99877.97;5052867;28;20076;-59
2022/09/03 05:10:49;;;;;;;3.97;1.50;;;;;;;14.65;53.29;99874.91;5050925;28;20045;-59
2022/09/03 05:13:16;;;;;;;5.05;1.25;;;;;;;14.66;53.54;99882.97;5064832;28;20098;-59
2022/09/03 05:15:44;;;;;;;3.10;1.60;;;;;;;14.67;53.25;99878.16;5067406;28;20048;-58
2022/09/03 05:18:13;;;;;;;3.80;1.73;;;;;;;14.68;53.53;99880.63;5052734;28;20060;-58
2022/09/03 05:20:40;;;;;;;2.65;1.60;;;;;;;14.72;53.24;99875.09;5051990;28;20064;-59
2022/09/03 05:23:07;;;;;;;2.88;1.85;;;;;;;14.70;53.41;99874.63;5052710;28;20064;-59
2022/09/03 05:25:36;;;;;;;1.80;1.20;;;;;;;14.69;53.50;99870.22;5051724;28;20075;-59
2022/09/03 05:28:06;;;;;;;5.45;1.55;;;;;;;14.76;53.00;99871.25;5066757;28;20057;-59
2022/09/03 05:30:33;;;;;;;2.85;1.40;;;;;;;14.82;53.02;99881.03;5062696;28;20048;-58
2022/09/03 05:33:00;;;;;;;2.53;1.25;;;;;;;14.82;53.12;99871.78;5065354;28;20433;-58
2022/09/03 05:35:29;;;;;;;4.15;1.67;;;;;;;14.91;53.31;99877.22;5072190;28;20060;-58
2022/09/03 05:37:56;;;;;;;2.25;1.23;;;;;;;15.00;53.21;99863.88;5053594;28;20493;-59
2022/09/03 05:40:24;;;;;;;4.47;1.15;;;;;;;15.07;52.88;99874.47;5051727;28;20053;-59
2022/09/03 05:42:57;;;;;;;2.05;1.27;;;;;;;15.11;53.06;99873.38;5051924;28;20072;-59
2022/09/03 05:45:24;;;;;;;2.22;1.42;;;;;;;15.19;52.74;99880.81;5050688;28;20049;-59
2022/09/03 05:47:51;;;;;;;2.88;1.45;;;;;;;15.27;52.84;99881.00;5051909;28;20064;-59
2022/09/03 05:50:19;;;;;;;5.93;1.90;;;;;;;15.34;53.28;99878.38;5051891;28;20493;-59
2022/09/03 05:52:48;;;;;;;3.00;1.80;;;;;;;15.43;53.00;99879.84;5051799;28;20057;-60
2022/09/03 05:55:15;;;;;;;2.60;2.00;;;;;;;15.55;52.61;99876.13;5051724;28;20069;-59
2022/09/03 05:57:44;;;;;;;3.25;2.33;;;;;;;15.65;52.36;99871.16;5051781;28;20060;-60
2022/09/03 06:00:12;;;;;;;2.72;2.20;;;;;;;15.71;52.37;99864.06;5051180;28;20490;-59
2022/09/03 06:02:40;;;;;;;3.10;2.10;;;;;;;15.85;51.77;99863.63;5052138;28;20492;-59
2022/09/03 06:05:08;;;;;;;2.40;1.80;;;;;;;15.90;52.06;99868.97;5051993;28;20485;-59
2022/09/03 06:07:36;;;;;;;2.55;1.83;;;;;;;15.98;52.06;99871.56;5051900;28;20071;-58
2022/09/03 06:10:06;;;;;;;4.15;1.52;;;;;;;16.11;51.62;99875.06;5052299;28;20049;-58
2022/09/03 06:12:33;;;;;;;2.72;1.80;;;;;;;16.26;51.32;99862.16;5067329;28;20053;-59
2022/09/03 06:15:01;;;;;;;3.05;1.83;;;;;;;16.43;51.07;99867.34;5051177;28;20053;-59
2022/09/03 06:17:28;;;;;;;4.68;1.80;;;;;;;16.54;50.58;99872.38;5051653;28;20053;-60
2022/09/03 06:19:55;;;;;;;3.50;1.60;;;;;;;16.68;50.56;99869.06;5051112;28;20064;-59
2022/09/03 06:22:27;;;;;;;2.45;1.50;;;;;;;16.83;50.25;99865.38;5051574;28;20061;-58
2022/09/03 06:24:54;;;;;;;4.18;1.77;;;;;;;16.98;49.99;99860.84;5049976;28;20045;-59
2022/09/03 06:27:23;;;;;;;4.32;1.83;;;;;;;17.10;49.95;99859.84;5052430;28;20056;-59
2022/09/03 06:29:50;;;;;;;3.17;1.63;;;;;;;17.17;49.59;99872.03;5050673;28;20052;-59
2022/09/03 06:32:18;;;;;;;3.65;1.75;;;;;;;17.31;49.26;99865.88;5049627;28;20064;-59
2022/09/03 06:34:45;;;;;;;4.25;1.85;;;;;;;17.45;49.31;99874.56;5048067;28;20351;-58
2022/09/03 06:37:13;;;;;;;4.10;1.70;;;;;;;17.56;48.91;99871.13;5048669;28;21053;-59
2022/09/03 06:39:40;;;;;;;3.40;1.65;;;;;;;17.62;49.11;99875.25;5046655;28;20413;-60
2022/09/03 06:42:08;;;;;;;3.00;2.05;;;;;;;17.75;48.64;99876.66;5040013;28;20572;-59
2022/09/03 06:44:37;;;;;;;4.72;1.70;;;;;;;17.91;48.44;99870.09;5047926;28;20045;-59
2022/09/03 06:47:06;;;;;;;3.30;1.60;;;;;;;18.03;48.03;99873.50;5057126;28;20358;-59
2022/09/03 06:49:34;;;;;;;3.72;1.58;;;;;;;18.15;47.99;99858.38;5050065;28;20049;-60
2022/09/03 06:52:02;;;;;;;3.25;1.30;;;;;;;18.30;47.11;99864.22;5044187;28;20127;-59
2022/09/03 06:54:29;;;;;;;1.85;1.33;;;;;;;18.38;47.37;99860.31;5054684;28;20049;-59
2022/09/03 06:56:57;;;;;;;2.95;1.50;;;;;;;18.50;46.80;99868.53;5055891;28;20063;-60
2022/09/03 06:59:24;;;;;;;4.88;1.50;;;;;;;18.69;46.67;99869.53;5053518;28;20394;-58
2022/09/03 07:01:53;;;;;;;2.78;1.10;;;;;;;18.87;46.48;99870.59;5051723;28;20151;-58
2022/09/03 07:04:23;;;;;;;3.45;1.30;;;;;;;18.96;45.59;99865.47;5053175;28;20053;-60
2022/09/03 07:06:51;;;;;;;2.05;1.20;;;;;;;19.18;45.42;99869.31;5051044;28;20398;-60
2022/09/03 07:09:18;;;;;;;2.80;1.27;;;;;;;19.34;45.51;99880.38;5052133;28;20045;-60
2022/09/03 07:11:46;;;;;;;5.18;1.35;;;;;;;19.51;43.75;99873.28;5053762;28;20056;-59
2022/09/03 07:14:14;;;;;;;2.80;1.30;;;;;;;19.71;42.99;99876.69;5053618;28;20053;-59
2022/09/03 07:16:42;;;;;;;2.40;1.25;;;;;;;19.91;41.90;99871.59;5050885;28;20052;-60
2022/09/03 07:19:12;;;;;;;3.45;1.17;;;;;;;20.25;40.77;99863.72;5049757;28;20060;-59
2022/09/03 07:21:41;;;;;;;2.25;1.05;;;;;;;20.87;39.52;99864.84;5053584;28;20057;-59
2022/09/03 07:24:09;;;;;;;1.42;1.02;;;;;;;21.80;37.70;99859.34;5053291;28;20049;-59
2022/09/03 07:26:38;;;;;;;17.38;2.03;;;;;;;22.84;35.67;99863.91;5052569;28;20053;-59
2022/09/03 07:29:07;;;;;;;4.30;1.40;;;;;;;23.68;34.34;99855.25;5053276;28;20049;-59
2022/09/03 07:31:36;;;;;;;2.78;1.23;;;;;;;24.33;32.28;99865.25;5053009;28;20067;-59
2022/09/03 07:34:05;;;;;;;3.53;1.15;;;;;;;25.03;31.69;99859.09;5056146;28;20072;-59
2022/09/03 07:36:38;;;;;;;3.45;1.10;;;;;;;24.54;32.20;99873.56;5051542;28;20053;-60
2022/09/03 07:39:06;;;;;;;3.40;1.20;;;;;;;24.07;32.57;99870.38;5045772;28;20406;-59
2022/09/03 07:41:34;;;;;;;3.45;1.23;;;;;;;23.74;33.53;99871.88;5053419;28;20076;-59
2022/09/03 07:44:04;;;;;;;1.50;0.90;;;;;;;23.61;33.63;99872.38;5052907;28;20060;-59
2022/09/03 07:46:33;;;;;;;2.65;1.50;;;;;;;23.45;34.02;99875.75;5053275;28;20048;-58
2022/09/03 07:49:01;;;;;;;3.38;1.20;;;;;;;23.39;34.02;99870.91;5057800;28;20481;-58
2022/09/03 07:51:31;;;;;;;3.17;1.05;;;;;;;23.33;34.32;99873.41;5051937;28;20046;-59
2022/09/03 07:54:01;;;;;;;3.13;0.90;;;;;;;23.30;34.48;99877.06;5052015;28;20410;-58
2022/09/03 07:56:30;;;;;;;1.58;0.98;;;;;;;23.31;34.26;99875.88;5052478;28;20064;-58
2022/09/03 07:58:57;;;;;;;3.97;1.20;;;;;;;23.13;35.08;99878.00;5049698;28;20097;-59
2022/09/03 08:01:27;;;;;;;5.40;1.13;;;;;;;23.19;34.91;99871.47;5059348;28;20056;-59
2022/09/03 08:03:54;;;;;;;;;;;;;;;22.92;35.05;99859.03;5051360;28;20219;-58
2022/09/03 08:06:23;;;;;;;3.97;1.23;;;;;;;23.57;34.78;99865.13;5050140;28;19928;-58
2022/09/03 08:08:56;;;;;;;2.47;1.20;;;;;;;23.76;33.64;99870.25;5052242;28;20049;-59
2022/09/03 08:11:26;;;;;;;10.10;1.30;;;;;;;23.65;34.00;99878.06;5052343;28;20048;-58
2022/09/03 08:14:00;;;;;;;7.03;1.33;;;;;;;23.81;34.18;99874.69;5062939;28;20371;-58
2022/09/03 08:16:28;;;;;;;5.22;1.40;;;;;;;23.80;33.87;99876.72;5055237;28;20481;-58
2022/09/03 08:18:56;;;;;;;4.35;1.30;;;;;;;24.02;33.79;99890.75;5057423;28;20056;-59
2022/09/03 08:21:25;;;;;;;2.38;1.20;;;;;;;23.73;33.57;99888.16;5064543;28;20067;-59
2022/09/03 08:23:53;;;;;;;5.65;1.35;;;;;;;23.53;34.32;99884.22;5063884;28;20057;-59
2022/09/03 08:26:22;;;;;;;3.30;1.00;;;;;;;23.41;34.64;99883.47;5059608;28;20057;-58
2022/09/03 08:28:53;;;;;;;3.60;1.10;;;;;;;23.62;34.09;99876.03;5053003;28;20053;-58
2022/09/03 08:31:23;;;;;;;5.25;1.20;;;;;;;23.82;34.05;99882.81;5052417;28;20506;-58
2022/09/03 08:33:53;;;;;;;4.20;1.10;;;;;;;24.15;33.69;99888.19;5052611;28;20049;-58
2022/09/03 08:36:22;;;;;;;2.85;1.20;;;;;;;25.24;31.87;99883.66;5050911;28;20071;-59
2022/09/03 08:38:53;;;;;;;5.05;1.20;;;;;;;25.41;31.44;99882.59;5052608;28;20060;-59
2022/09/03 08:41:29;;;;;;;5.47;1.35;;;;;;;25.65;31.53;99877.72;5051051;28;20056;-59
2022/09/03 08:44:09;;;;;;;3.05;1.20;;;;;;;26.79;29.66;99876.88;5052036;28;20049;-58
2022/09/03 08:46:49;;;;;;;4.15;1.10;;;;;;;26.75;29.77;99881.06;5044400;28;20060;-58
2022/09/03 08:49:22;;;;;;;2.75;1.38;;;;;;;26.49;30.30;99875.03;5051642;28;20065;-59
2022/09/03 08:51:53;;;;;;;2.45;1.20;;;;;;;27.87;28.66;99886.69;5047890;28;20045;-60
2022/09/03 08:54:24;;;;;;;5.88;1.00;;;;;;;28.73;27.44;99878.63;5051721;28;20052;-58
2022/09/03 08:56:51;;;;;;;1.88;1.10;;;;;;;29.12;26.52;99882.41;5071786;28;20059;-59
2022/09/03 08:59:20;;;;;;;4.10;1.40;;;;;;;29.54;25.43;99878.63;5057670;28;20045;-59
2022/09/03 09:01:55;;;;;;;2.38;1.20;;;;;;;30.82;24.80;99869.66;5069007;28;20056;-59
2022/09/03 09:04:45;;;;;;;10.52;1.80;;;;;;;32.40;22.67;99877.59;5061724;28;20059;-59
2022/09/03 09:07:21;;;;;;;11.15;1.70;;;;;;;33.67;21.51;99868.38;5052566;28;20064;-59
2022/09/03 09:10:00;;;;;;;3.60;1.20;;;;;;;35.75;19.87;99857.13;5052109;28;20055;-59
2022/09/03 09:12:35;;;;;;;2.67;1.45;;;;;;;35.41;19.20;99867.38;5053269;28;20056;-60
2022/09/03 09:15:10;;;;;;;4.70;1.55;;;;;;;35.83;18.78;99857.50;5049915;28;20042;-60
2022/09/03 09:17:52;;;;;;;3.50;1.02;;;;;;;35.48;19.50;99858.25;5062370;28;20066;-60
2022/09/03 09:20:27;;;;;;;3.78;1.45;;;;;;;35.50;19.57;99861.47;5053925;28;20056;-60
2022/09/03 09:22:57;;;;;;;4.53;1.27;;;;;;;36.63;18.80;99851.41;5050847;28;20386;-59
2022/09/03 09:25:26;;;;;;;3.88;1.33;;;;;;;35.38;19.22;99845.19;5050968;28;20056;-59
2022/09/03 09:27:59;;;;;;;3.35;1.35;;;;;;;36.19;18.87;99849.56;5051532;28;20060;-59
2022/09/03 09:30:30;;;;;;;4.57;1.55;;;;;;;36.47;18.35;99846.19;5050610;28;20053;-59
2022/09/03 09:32:59;;;;;;;7.00;1.60;;;;;;;37.02;18.80;99838.56;5051377;28;20477;-59
2022/09/03 09:35:26;;;;;;;3.67;1.33;;;;;;;37.14;17.94;99834.50;5052785;28;20060;-59
2022/09/03 09:37:55;;;;;;;2.23;1.57;;;;;;;37.58;17.71;99831.13;5052569;28;20397;-59
2022/09/03 09:40:25;;;;;;;2.20;1.42;;;;;;;37.44;17.70;99829.16;5048199;28;20056;-60
2022/09/03 09:43:03;;;;;;;4.00;1.55;;;;;;;35.55;19.15;99830.97;5050290;28;20064;-59
2022/09/03 09:45:33;;;;;;;;;;;;;;;36.52;18.52;99828.06;5044834;28;20059;-59
2022/09/03 09:48:02;;;;;;;1.60;1.20;;;;;;;37.52;17.55;99832.38;5051981;28;19920;-60
2022/09/03 09:50:29;;;;;;;3.10;1.50;;;;;;;38.23;17.24;99840.47;5050210;28;20076;-59
2022/09/03 09:53:05;;;;;;;2.67;1.13;;;;;;;38.25;17.04;99835.72;5048596;28;20052;-60
2022/09/03 09:55:33;;;;;;;2.70;1.38;;;;;;;39.43;16.35;99829.28;5058696;28;20451;-60
2022/09/03 09:58:10;;;;;;;2.30;1.40;;;;;;;40.59;15.42;99819.03;5049699;28;20410;-60
2022/09/03 10:00:41;;;;;;;1.85;1.25;;;;;;;41.26;14.94;99820.69;5052008;28;20048;-60
2022/09/03 10:03:12;;;;;;;3.53;1.67;;;;;;;40.64;15.03;99826.22;5050197;28;20076;-60
2022/09/03 10:05:40;;;;;;;2.13;1.50;;;;;;;40.38;15.47;99824.47;5050178;28;20049;-59
2022/09/03 10:08:18;;;;;;;;;;;;;;;40.73;15.32;99820.84;5041203;28;20056;-60
2022/09/03 10:10:47;;;;;;;;;;;;;;;40.68;15.60;99817.94;5055090;28;19928;-60
2022/09/03 10:13:20;;;;;;;2.47;1.35;;;;;;;40.73;15.41;99823.75;5049037;28;20266;-61
2022/09/03 10:15:52;;;;;;;1.30;1.17;;;;;;;39.67;16.18;99827.91;5050615;28;20423;-59
2022/09/03 10:18:28;;;;;;;2.78;1.13;;;;;;;40.45;15.91;99818.09;5051408;28;20056;-60
2022/09/03 10:21:05;;;;;;;5.32;1.83;;;;;;;41.48;14.48;99808.00;5050833;28;20061;-60
2022/09/03 10:23:50;;;;;;;2.95;1.10;;;;;;;41.22;15.08;99808.50;5047198;28;20056;-62
2022/09/03 10:26:28;;;;;;;2.35;1.40;;;;;;;39.62;15.69;99817.84;5050131;28;20053;-59
2022/09/03 10:28:58;;;;;;;1.98;1.10;;;;;;;39.12;16.76;99825.34;5055673;28;20064;-60
2022/09/03 10:31:52;;;;;;;1.85;1.20;;;;;;;38.03;17.25;99827.69;5055459;28;20056;-60
2022/09/03 10:34:35;;;;;;;2.20;1.58;;;;;;;38.55;16.77;99826.56;5054169;28;20766;-60
2022/09/03 10:37:17;;;;;;;2.03;1.27;;;;;;;40.32;15.86;99821.63;5060824;28;20069;-60
2022/09/03 10:40:01;;;;;;;1.60;1.20;;;;;;;41.16;15.17;99817.34;5075717;28;20068;-59
2022/09/03 10:42:39;;;;;;;2.35;1.77;;;;;;;42.50;14.61;99809.69;5061619;28;20053;-59
2022/09/03 10:45:23;;;;;;;3.42;1.63;;;;;;;43.31;13.78;99806.53;5055273;28;20059;-60
2022/09/03 10:48:28;;;;;;;3.10;1.60;;;;;;;44.20;13.31;99796.50;5055572;28;20536;-60
2022/09/03 10:51:03;;;;;;;4.10;1.75;;;;;;;44.27;13.01;99810.53;5064965;28;20091;-60
2022/09/03 10:53:54;;;;;;;2.33;1.58;;;;;;;44.34;13.21;99806.88;5055887;28;20056;-59
2022/09/03 10:56:34;;;;;;;7.28;1.88;;;;;;;42.94;14.22;99810.38;5055219;28;20425;-59
2022/09/03 10:59:18;;;;;;;2.70;1.83;;;;;;;39.66;16.07;99805.94;5055426;28;20056;-60
2022/09/03 11:01:54;;;;;;;3.05;1.73;;;;;;;38.92;17.33;99825.56;5055380;28;20049;-59
2022/09/03 11:04:30;;;;;;;2.25;1.40;;;;;;;37.99;18.24;99821.31;5054437;28;20056;-59
2022/09/03 11:07:03;;;;;;;2.40;1.52;;;;;;;38.16;17.98;99819.28;5055355;28;20068;-58
2022/09/03 11:09:37;;;;;;;2.05;1.40;;;;;;;37.64;18.31;99812.94;5055114;28;20059;-59
2022/09/03 11:12:08;;;;;;;3.10;1.30;;;;;;;37.40;19.28;99807.47;5054566;28;20052;-59
2022/09/03 11:14:41;;;;;;;3.00;1.35;;;;;;;37.25;19.03;99819.25;5054858;28;20056;-58
2022/09/03 11:17:15;;;;;;;2.00;1.60;;;;;;;36.51;19.01;99818.53;5054617;28;20056;-59
2022/09/03 11:19:49;;;;;;;2.92;2.35;;;;;;;38.06;17.94;99808.41;5053524;28;20053;-59
2022/09/03 11:22:23;;;;;;;1.75;1.40;;;;;;;38.80;17.81;99809.41;5052724;28;20056;-59
2022/09/03 11:24:56;;;;;;;2.20;1.55;;;;;;;38.77;17.35;99820.78;5052058;28;20544;-59
2022/09/03 11:27:36;;;;;;;4.20;1.55;;;;;;;37.73;17.90;99815.63;5051774;28;20056;-59
2022/09/03 11:30:06;;;;;;;2.28;1.60;;;;;;;37.03;19.03;99811.94;5050722;28;20057;-59
2022/09/03 11:32:48;;;;;;;3.05;1.50;;;;;;;36.78;19.31;99808.56;5053745;28;20053;-59
2022/09/03 11:35:24;;;;;;;2.60;1.70;;;;;;;35.24;20.52;99817.06;5061054;28;20052;-59
2022/09/03 11:37:59;;;;;;;1.88;1.30;;;;;;;35.45;20.77;99812.94;5052422;28;20097;-59
2022/09/03 11:40:32;;;;;;;2.00;1.50;;;;;;;34.91;20.85;99812.31;5051613;28;20053;-58
2022/09/03 11:43:08;;;;;;;3.42;1.83;;;;;;;35.27;20.63;99811.06;5046350;28;20061;-58
2022/09/03 11:45:37;;;;;;;3.25;1.30;;;;;;;35.78;19.75;99814.72;5052887;28;20055;-58
2022/09/03 11:48:18;;;;;;;1.95;1.17;;;;;;;34.88;20.42;99819.06;5072940;28;20052;-60
2022/09/03 11:50:54;;;;;;;2.03;1.30;;;;;;;33.72;21.76;99826.47;5054119;28;20429;-59
2022/09/03 11:53:35;;;;;;;2.08;1.30;;;;;;;33.06;22.32;99833.00;5053768;28;20049;-58
2022/09/03 11:56:17;;;;;;;2.03;1.40;;;;;;;33.44;22.03;99822.91;5054002;28;20064;-58
2022/09/03 11:58:48;;;;;;;4.20;1.30;;;;;;;33.01;22.93;99817.16;5054138;28;20053;-58
2022/09/03 12:01:18;;;;;;;3.50;1.52;;;;;;;32.47;23.22;99819.63;5053549;28;20449;-59
2022/09/03 12:03:48;;;;;;;3.47;1.80;;;;;;;32.09;24.06;99828.78;5053504;28;20523;-59
2022/09/03 12:06:42;;;;;;;2.75;1.27;;;;;;;31.85;24.31;99817.03;5046942;28;20169;-58
2022/09/03 12:09:39;;;;;;;3.67;1.90;;;;;;;31.60;24.50;99821.78;5006035;28;20433;-59
2022/09/03 12:12:21;;;;;;;3.25;1.60;;;;;;;31.38;24.89;99818.97;5051636;28;20493;-59
2022/09/03 12:14:58;;;;;;;3.33;1.83;;;;;;;31.06;25.11;99835.47;5053096;28;20048;-60